< Typhoon 196720 1967 Season Typhoon 196722 >
Typhoon 196721 (NORA)
General InformationTrack Information on Google Maps || Disaster Info.ResourceGoogle EarthGE AnimationAtom FeedGeoJSON
Detalied Best Track (Time Zone = UTC)
Year Month Day Hour Lat. Long. Pressure (hPa) Wind (kt) Class Image Chart
1967 8 25 06 15.5 140.2 1006 0 2 -- Chart
1967 8 25 12 15.7 139.5 1008 0 2 -- Chart
1967 8 25 18 16.0 139.0 1006 0 2 -- Chart
1967 8 26 00 16.4 138.1 1002 0 2 -- Chart
1967 8 26 06 17.0 137.0 1002 0 2 -- Chart
1967 8 26 12 17.5 136.0 1000 0 2 -- Chart
1967 8 26 18 18.0 134.6 1002 0 2 -- Chart
1967 8 27 00 18.0 133.0 1003 0 2 -- Chart
1967 8 27 06 18.3 132.3 1000 0 2 -- Chart
1967 8 27 12 18.9 131.8 1000 0 2 -- Chart
1967 8 27 18 19.5 131.1 1000 0 2 -- Chart
1967 8 28 00 20.8 130.5 996 0 2 -- Chart
1967 8 28 06 21.3 129.8 991 0 9 -- Chart
1967 8 28 12 22.2 128.2 990 0 9 -- Chart
1967 8 28 18 22.6 126.4 990 0 9 -- Chart
1967 8 29 00 23.1 124.9 990 0 9 -- Chart
1967 8 29 06 23.8 123.9 990 0 9 -- Chart
1967 8 29 12 24.0 122.8 990 0 9 -- Chart
1967 8 29 18 24.1 121.3 990 0 9 -- Chart
1967 8 30 00 24.2 119.0 990 0 9 -- Chart
1967 8 30 06 24.6 117.0 994 0 2 -- Chart
1967 8 30 12 25.5 116.0 996 0 2 -- Chart
1967 8 30 18 26.9 115.0 998 0 2 -- Chart
1967 8 31 00 27.1 113.0 998 0 2 -- Chart
1967 8 31 06 27.8 112.0 998 0 2 -- Chart
1967 8 31 12 28.2 111.5 1000 0 2 -- Chart
1967 8 31 18 28.8 111.0 1000 0 2 -- Chart
1967 9 1 00 29.0 109.9 1000 0 2 -- Chart
Japan Meteorological Agency Best Track Data | Correction Date : 1989-06-01
< Typhoon 196720 1967 Season Typhoon 196722 >

Help